Legend — WDF9316 — position and weather

sailwx.info

Track history (hours):
 
Tides and Currents Weather Stations Pressure Air Temp Water Temp Dewpoint Dewpoint Depression Visibility Wind Speed Wind Dir Waves Ship Positions

Legend

More information available from US FCC via Universal Licensing System and Coast Guard Vessel Documentation Center.

Last reported at 2014-Jul-24 20:33 UTC. Time now 2014-Jul-25 03:43 UTC.
Position N 25°37' W 080°01'.

Length 212 m; draft 7.9 m.

Type: Towing. MMSI: 366709000.

Date/timePositionNaut miles runAvg speedWind from/ knotsBaromVisibWave heightAir tempDewpointWater temp
2014-Jul-24 20:33N 25°37' W 080°01'9 9.0
2014-Jul-24 19:33N 25°46' W 080°01'9 9.5
2014-Jul-24 18:33N 25°56' W 080°01'10 9.9
2014-Jul-24 17:33N 26°06' W 079°60'10 9.5
2014-Jul-24 16:33N 26°15' W 079°58'10 9.6
2014-Jul-24 15:33N 26°25' W 079°58'9 9.2
2014-Jul-24 14:33N 26°34' W 079°57'9 9.0
2014-Jul-24 13:33N 26°43' W 079°56'9 8.8
2014-Jul-24 12:33N 26°52' W 079°56'9 9.2
2014-Jul-24 11:33N 27°01' W 079°56'7 0.1
2014-Jul-22 08:26N 27°08' W 079°57'1416.2
2014-Jul-22 07:34N 26°53' W 079°57'1515.2
2014-Jul-22 06:33N 26°38' W 079°56'1413.5
2014-Jul-22 05:33N 26°25' W 079°58'1313.1
2014-Jul-22 04:33N 26°12' W 080°00'9 8.4
2014-Jul-22 03:29N 26°06' W 080°07'0 0.0
2014-Jul-22 02:32N 26°06' W 080°07'0 0.0
2014-Jul-22 01:32N 26°06' W 080°07'0 0.0
2014-Jul-22 00:32N 26°06' W 080°07'0 0.0
2014-Jul-21 23:32N 26°06' W 080°07'0 0.0
2014-Jul-21 22:23N 26°06' W 080°07'0 0.0
2014-Jul-21 21:23N 26°06' W 080°07'0 0.0
2014-Jul-21 20:26N 26°06' W 080°07'0 0.0
2014-Jul-21 20:08N 26°06' W 080°07'0 0.0
2014-Jul-21 19:26N 26°06' W 080°07'0 0.0
2014-Jul-21 18:26N 26°06' W 080°07'0 0.0
2014-Jul-21 17:29N 26°06' W 080°07'0 0.0
2014-Jul-21 16:29N 26°06' W 080°07'0 0.0
2014-Jul-21 15:29N 26°06' W 080°07'0 0.0
2014-Jul-21 14:32N 26°06' W 080°07'0 0.0
2014-Jul-21 13:32N 26°06' W 080°07'0 0.0
2014-Jul-21 12:32N 26°06' W 080°07'0 0.0
2014-Jul-21 11:32N 26°06' W 080°07'0 0.0
2014-Jul-21 10:32N 26°06' W 080°07'0 0.0
2014-Jul-21 09:32N 26°06' W 080°07'0 0.0
2014-Jul-21 08:32N 26°06' W 080°07'0 0.1
2014-Jul-21 07:33N 26°06' W 080°07'5 5.0
2014-Jul-21 06:33N 26°07' W 080°02'6 5.9
2014-Jul-21 05:33N 26°13' W 080°01'2 2.5
2014-Jul-21 04:33N 26°11' W 079°59'3 2.8
2014-Jul-21 03:34N 26°10' W 080°01'1211.8
2014-Jul-21 02:33N 25°58' W 079°60'1312.9
2014-Jul-21 01:34N 25°45' W 079°57'  
2014-Jul-17 13:10N 30°03' W 090°35'0 0.0
2014-Jul-17 12:28N 30°03' W 090°35'0 0.0
2014-Jul-17 08:25N 30°03' W 090°35'  
Track history (hours):
 
Tides and Currents Weather Stations Pressure Air Temp Water Temp Dewpoint Dewpoint Depression Visibility Wind Speed Wind Dir Waves Ship Positions

Legend

More information available from US FCC via Universal Licensing System and Coast Guard Vessel Documentation Center.

Last reported at 2014-Jul-24 20:33 UTC. Time now 2014-Jul-25 03:43 UTC.
Position N 25°37' W 080°01'.

Length 212 m; draft 7.9 m.

Type: Towing. MMSI: 366709000.

Date/timePositionNaut miles runAvg speedWind from/ knotsBaromVisibWave heightAir tempDewpointWater temp
2014-Jul-24 20:33N 25°37' W 080°01'9 9.0
2014-Jul-24 19:33N 25°46' W 080°01'9 9.5
2014-Jul-24 18:33N 25°56' W 080°01'10 9.9
2014-Jul-24 17:33N 26°06' W 079°60'10 9.5
2014-Jul-24 16:33N 26°15' W 079°58'10 9.6
2014-Jul-24 15:33N 26°25' W 079°58'9 9.2
2014-Jul-24 14:33N 26°34' W 079°57'9 9.0
2014-Jul-24 13:33N 26°43' W 079°56'9 8.8
2014-Jul-24 12:33N 26°52' W 079°56'9 9.2
2014-Jul-24 11:33N 27°01' W 079°56'7 0.1
2014-Jul-22 08:26N 27°08' W 079°57'1416.2
2014-Jul-22 07:34N 26°53' W 079°57'1515.2
2014-Jul-22 06:33N 26°38' W 079°56'1413.5
2014-Jul-22 05:33N 26°25' W 079°58'1313.1
2014-Jul-22 04:33N 26°12' W 080°00'9 8.4
2014-Jul-22 03:29N 26°06' W 080°07'0 0.0
2014-Jul-22 02:32N 26°06' W 080°07'0 0.0
2014-Jul-22 01:32N 26°06' W 080°07'0 0.0
2014-Jul-22 00:32N 26°06' W 080°07'0 0.0
2014-Jul-21 23:32N 26°06' W 080°07'0 0.0
2014-Jul-21 22:23N 26°06' W 080°07'0 0.0
2014-Jul-21 21:23N 26°06' W 080°07'0 0.0
2014-Jul-21 20:26N 26°06' W 080°07'0 0.0
2014-Jul-21 20:08N 26°06' W 080°07'0 0.0
2014-Jul-21 19:26N 26°06' W 080°07'0 0.0
2014-Jul-21 18:26N 26°06' W 080°07'0 0.0
2014-Jul-21 17:29N 26°06' W 080°07'0 0.0
2014-Jul-21 16:29N 26°06' W 080°07'0 0.0
2014-Jul-21 15:29N 26°06' W 080°07'0 0.0
2014-Jul-21 14:32N 26°06' W 080°07'0 0.0
2014-Jul-21 13:32N 26°06' W 080°07'0 0.0
2014-Jul-21 12:32N 26°06' W 080°07'0 0.0
2014-Jul-21 11:32N 26°06' W 080°07'0 0.0
2014-Jul-21 10:32N 26°06' W 080°07'0 0.0
2014-Jul-21 09:32N 26°06' W 080°07'0 0.0
2014-Jul-21 08:32N 26°06' W 080°07'0 0.1
2014-Jul-21 07:33N 26°06' W 080°07'5 5.0
2014-Jul-21 06:33N 26°07' W 080°02'6 5.9
2014-Jul-21 05:33N 26°13' W 080°01'2 2.5
2014-Jul-21 04:33N 26°11' W 079°59'3 2.8
2014-Jul-21 03:34N 26°10' W 080°01'1211.8
2014-Jul-21 02:33N 25°58' W 079°60'1312.9
2014-Jul-21 01:34N 25°45' W 079°57'  
2014-Jul-17 13:10N 30°03' W 090°35'0 0.0
2014-Jul-17 12:28N 30°03' W 090°35'0 0.0
2014-Jul-17 08:25N 30°03' W 090°35'  

Dump ship's entire track history